sensor_id;sensor_type;location;lat;lon;timestamp;pressure;altitude;pressure_sealevel;temperature;humidity
9523;BME280;63165;43.016;25.784;2023-02-18T00:00:59;100732.63;;;2.95;68.45
9523;BME280;63165;43.016;25.784;2023-02-18T00:03:28;100735.22;;;2.95;68.04
9523;BME280;63165;43.016;25.784;2023-02-18T00:05:57;100729.22;;;2.96;68.06
9523;BME280;63165;43.016;25.784;2023-02-18T00:08:24;100705.19;;;2.66;68.34
9523;BME280;63165;43.016;25.784;2023-02-18T00:10:51;100723.16;;;2.95;68.54
9523;BME280;63165;43.016;25.784;2023-02-18T00:13:18;100719.84;;;3.01;68.34
9523;BME280;63165;43.016;25.784;2023-02-18T00:15:45;100717.34;;;3.04;68.25
9523;BME280;63165;43.016;25.784;2023-02-18T00:18:13;100719.16;;;3.08;68.18
9523;BME280;63165;43.016;25.784;2023-02-18T00:20:40;100719.22;;;3.09;68.31
9523;BME280;63165;43.016;25.784;2023-02-18T00:23:09;100701.84;;;3.04;68.19
9523;BME280;63165;43.016;25.784;2023-02-18T00:25:36;100709.69;;;3.08;68.24
9523;BME280;63165;43.016;25.784;2023-02-18T00:28:03;100710.72;;;3.15;68.04
9523;BME280;63165;43.016;25.784;2023-02-18T00:30:31;100717.66;;;3.16;68.09
9523;BME280;63165;43.016;25.784;2023-02-18T00:32:58;100711.59;;;3.16;68.23
9523;BME280;63165;43.016;25.784;2023-02-18T00:35:25;100708.97;;;3.14;68.12
9523;BME280;63165;43.016;25.784;2023-02-18T00:37:52;100704.50;;;3.08;68.10
9523;BME280;63165;43.016;25.784;2023-02-18T00:40:21;100708.72;;;3.03;68.30
9523;BME280;63165;43.016;25.784;2023-02-18T00:42:48;100705.22;;;3.01;68.46
9523;BME280;63165;43.016;25.784;2023-02-18T00:45:16;100689.59;;;2.97;68.56
9523;BME280;63165;43.016;25.784;2023-02-18T00:47:43;100699.09;;;2.98;68.59
9523;BME280;63165;43.016;25.784;2023-02-18T00:50:10;100690.50;;;2.99;68.60
9523;BME280;63165;43.016;25.784;2023-02-18T00:52:38;100683.66;;;3.01;68.27
9523;BME280;63165;43.016;25.784;2023-02-18T00:55:05;100671.56;;;3.00;68.19
9523;BME280;63165;43.016;25.784;2023-02-18T00:57:34;100685.31;;;2.99;67.81
9523;BME280;63165;43.016;25.784;2023-02-18T01:00:02;100697.31;;;2.95;67.58
9523;BME280;63165;43.016;25.784;2023-02-18T01:02:29;100680.84;;;2.91;68.12
9523;BME280;63165;43.016;25.784;2023-02-18T01:04:57;100678.25;;;2.90;67.97
9523;BME280;63165;43.016;25.784;2023-02-18T01:07:24;100675.53;;;2.85;68.24
9523;BME280;63165;43.016;25.784;2023-02-18T01:09:51;100670.22;;;2.79;68.53
9523;BME280;63165;43.016;25.784;2023-02-18T01:12:18;100670.13;;;2.76;68.64
9523;BME280;63165;43.016;25.784;2023-02-18T01:14:47;100664.00;;;2.72;68.63
9523;BME280;63165;43.016;25.784;2023-02-18T01:17:14;100651.91;;;2.70;68.61
9523;BME280;63165;43.016;25.784;2023-02-18T01:19:42;100644.19;;;2.73;68.63
9523;BME280;63165;43.016;25.784;2023-02-18T01:22:09;100640.72;;;2.71;68.48
9523;BME280;63165;43.016;25.784;2023-02-18T01:24:36;100628.56;;;2.67;68.81
9523;BME280;63165;43.016;25.784;2023-02-18T01:27:04;100649.47;;;2.76;68.84
9523;BME280;63165;43.016;25.784;2023-02-18T01:29:31;100645.19;;;2.78;68.78
9523;BME280;63165;43.016;25.784;2023-02-18T01:32:00;100641.78;;;2.79;68.95
9523;BME280;63165;43.016;25.784;2023-02-18T01:34:27;100639.25;;;2.81;68.81
9523;BME280;63165;43.016;25.784;2023-02-18T01:36:54;100640.03;;;2.78;68.61
9523;BME280;63165;43.016;25.784;2023-02-18T01:39:22;100635.63;;;2.74;68.59
9523;BME280;63165;43.016;25.784;2023-02-18T01:41:49;100630.31;;;2.68;68.53
9523;BME280;63165;43.016;25.784;2023-02-18T01:44:17;100624.16;;;2.63;68.71
9523;BME280;63165;43.016;25.784;2023-02-18T01:46:45;100632.06;;;2.69;68.63
9523;BME280;63165;43.016;25.784;2023-02-18T01:49:18;100630.38;;;2.69;68.38
9523;BME280;63165;43.016;25.784;2023-02-18T01:51:50;100613.16;;;2.70;68.36
9523;BME280;63165;43.016;25.784;2023-02-18T01:54:21;100613.81;;;2.63;68.69
9523;BME280;63165;43.016;25.784;2023-02-18T01:56:54;100612.81;;;2.58;68.31
9523;BME280;63165;43.016;25.784;2023-02-18T01:59:24;100607.59;;;2.55;68.47
9523;BME280;63165;43.016;25.784;2023-02-18T02:01:53;100616.19;;;2.53;68.79
9523;BME280;63165;43.016;25.784;2023-02-18T02:04:23;100616.19;;;2.53;68.69
9523;BME280;63165;43.016;25.784;2023-02-18T02:06:51;100621.31;;;2.52;68.67
9523;BME280;63165;43.016;25.784;2023-02-18T02:09:21;100618.81;;;2.55;69.04
9523;BME280;63165;43.016;25.784;2023-02-18T02:12:06;100623.00;;;2.51;69.09
9523;BME280;63165;43.016;25.784;2023-02-18T02:14:56;100612.53;;;2.45;69.24
9523;BME280;63165;43.016;25.784;2023-02-18T02:17:35;100623.66;;;2.43;69.04
9523;BME280;63165;43.016;25.784;2023-02-18T02:29:24;100607.19;;;2.39;69.09
9523;BME280;63165;43.016;25.784;2023-02-18T02:32:08;100606.22;;;2.34;69.53
9523;BME280;63165;43.016;25.784;2023-02-18T02:34:55;100601.16;;;2.39;69.55
9523;BME280;63165;43.016;25.784;2023-02-18T02:37:30;100591.66;;;2.36;69.47
9523;BME280;63165;43.016;25.784;2023-02-18T02:40:14;100607.38;;;2.45;69.42
9523;BME280;63165;43.016;25.784;2023-02-18T02:42:45;100603.88;;;2.43;69.17
9523;BME280;63165;43.016;25.784;2023-02-18T02:45:19;100603.84;;;2.42;69.17
9523;BME280;63165;43.016;25.784;2023-02-18T02:47:54;100599.63;;;2.45;69.23
9523;BME280;63165;43.016;25.784;2023-02-18T02:50:27;100595.28;;;2.44;69.54
9523;BME280;63165;43.016;25.784;2023-02-18T02:52:59;100597.91;;;2.46;69.51
9523;BME280;63165;43.016;25.784;2023-02-18T02:55:28;100597.00;;;2.44;69.65
9523;BME280;63165;43.016;25.784;2023-02-18T02:57:56;100592.50;;;2.37;69.43
9523;BME280;63165;43.016;25.784;2023-02-18T03:00:39;100596.09;;;2.42;69.57
9523;BME280;63165;43.016;25.784;2023-02-18T03:03:37;100599.44;;;2.39;69.56
9523;BME280;63165;43.016;25.784;2023-02-18T03:06:32;100596.88;;;2.39;69.71
9523;BME280;63165;43.016;25.784;2023-02-18T03:09:09;100602.78;;;2.35;69.82
9523;BME280;63165;43.016;25.784;2023-02-18T03:11:43;100592.50;;;2.37;69.93
9523;BME280;63165;43.016;25.784;2023-02-18T03:14:19;100600.22;;;2.35;69.99
9523;BME280;63165;43.016;25.784;2023-02-18T03:16:50;100588.88;;;2.30;70.11
9523;BME280;63165;43.016;25.784;2023-02-18T03:19:23;100599.44;;;2.38;70.24
9523;BME280;63165;43.016;25.784;2023-02-18T03:21:56;100585.63;;;2.37;70.39
9523;BME280;63165;43.016;25.784;2023-02-18T03:24:27;100583.03;;;2.37;70.47
9523;BME280;63165;43.016;25.784;2023-02-18T03:26:59;100595.97;;;2.37;70.55
9523;BME280;63165;43.016;25.784;2023-02-18T03:29:30;100591.75;;;2.41;70.42
9523;BME280;63165;43.016;25.784;2023-02-18T03:32:01;100586.63;;;2.42;70.42
9523;BME280;63165;43.016;25.784;2023-02-18T03:34:33;100591.78;;;2.42;70.66
9523;BME280;63165;43.016;25.784;2023-02-18T03:37:03;100593.56;;;2.43;70.65
9523;BME280;63165;43.016;25.784;2023-02-18T03:39:33;100594.38;;;2.42;70.66
9523;BME280;63165;43.016;25.784;2023-02-18T03:42:01;100590.00;;;2.40;70.69
9523;BME280;63165;43.016;25.784;2023-02-18T03:44:29;100590.03;;;2.41;70.67
9523;BME280;63165;43.016;25.784;2023-02-18T03:46:57;100596.09;;;2.42;70.88
9523;BME280;63165;43.016;25.784;2023-02-18T03:49:24;100599.44;;;2.39;70.69
9523;BME280;63165;43.016;25.784;2023-02-18T03:51:51;100581.84;;;2.24;70.56
9523;BME280;63165;43.016;25.784;2023-02-18T03:54:20;100610.53;;;2.35;70.58
9523;BME280;63165;43.016;25.784;2023-02-18T03:56:47;100596.72;;;2.33;70.96
9523;BME280;63165;43.016;25.784;2023-02-18T03:59:15;100588.88;;;2.28;70.97
9523;BME280;63165;43.016;25.784;2023-02-18T04:01:42;100596.88;;;2.39;71.32
9523;BME280;63165;43.016;25.784;2023-02-18T04:04:09;100593.50;;;2.42;71.36
9523;BME280;63165;43.016;25.784;2023-02-18T04:06:37;100590.06;;;2.43;71.46
9523;BME280;63165;43.016;25.784;2023-02-18T04:09:04;100579.69;;;2.41;72.01
9523;BME280;63165;43.016;25.784;2023-02-18T04:11:36;100577.28;;;2.47;72.09
9523;BME280;63165;43.016;25.784;2023-02-18T04:14:03;100570.44;;;2.49;72.38
9523;BME280;63165;43.016;25.784;2023-02-18T04:16:30;100559.88;;;2.40;72.10
9523;BME280;63165;43.016;25.784;2023-02-18T04:18:58;100571.22;;;2.45;72.28
9523;BME280;63165;43.016;25.784;2023-02-18T04:21:25;100572.88;;;2.43;72.57
9523;BME280;63165;43.016;25.784;2023-02-18T04:23:52;100569.41;;;2.43;72.72
9523;BME280;63165;43.016;25.784;2023-02-18T04:26:19;100567.72;;;2.43;72.78
9523;BME280;63165;43.016;25.784;2023-02-18T04:28:48;100566.91;;;2.46;72.78
9523;BME280;63165;43.016;25.784;2023-02-18T04:31:15;100552.94;;;2.38;72.91
9523;BME280;63165;43.016;25.784;2023-02-18T04:33:43;100564.41;;;2.49;72.96
9523;BME280;63165;43.016;25.784;2023-02-18T04:36:10;100566.09;;;2.48;72.77
9523;BME280;63165;43.016;25.784;2023-02-18T04:38:37;100563.66;;;2.53;72.83
9523;BME280;63165;43.016;25.784;2023-02-18T04:41:06;100567.09;;;2.53;72.79
9523;BME280;63165;43.016;25.784;2023-02-18T04:43:33;100564.66;;;2.58;72.71
9523;BME280;63165;43.016;25.784;2023-02-18T04:46:02;100543.75;;;2.49;73.04
9523;BME280;63165;43.016;25.784;2023-02-18T04:48:30;100546.63;;;2.61;72.96
9523;BME280;63165;43.016;25.784;2023-02-18T04:50:57;100561.38;;;2.67;72.81
9523;BME280;63165;43.016;25.784;2023-02-18T04:53:24;100542.34;;;2.63;72.70
9523;BME280;63165;43.016;25.784;2023-02-18T04:55:52;100542.44;;;2.66;72.30
9523;BME280;63165;43.016;25.784;2023-02-18T04:58:20;100539.84;;;2.66;72.04
9523;BME280;63165;43.016;25.784;2023-02-18T05:00:47;100541.59;;;2.67;72.28
9523;BME280;63165;43.016;25.784;2023-02-18T05:03:16;100547.47;;;2.62;72.11
9523;BME280;63165;43.016;25.784;2023-02-18T05:05:43;100545.75;;;2.61;72.41
9523;BME280;63165;43.016;25.784;2023-02-18T05:08:11;100541.41;;;2.60;72.62
9523;BME280;63165;43.016;25.784;2023-02-18T05:10:41;100549.19;;;2.61;72.59
9523;BME280;63165;43.016;25.784;2023-02-18T05:13:08;100550.91;;;2.61;72.62
9523;BME280;63165;43.016;25.784;2023-02-18T05:15:35;100544.06;;;2.63;72.44
9523;BME280;63165;43.016;25.784;2023-02-18T05:18:02;100544.06;;;2.63;72.85
9523;BME280;63165;43.016;25.784;2023-02-18T05:20:32;100548.41;;;2.64;72.87
9523;BME280;63165;43.016;25.784;2023-02-18T05:22:59;100551.91;;;2.66;72.95
9523;BME280;63165;43.016;25.784;2023-02-18T05:25:26;100551.00;;;2.65;73.03
9523;BME280;63165;43.016;25.784;2023-02-18T05:27:54;100541.53;;;2.64;73.16
9523;BME280;63165;43.016;25.784;2023-02-18T05:30:21;100550.06;;;2.60;73.24
9523;BME280;63165;43.016;25.784;2023-02-18T05:32:48;100544.00;;;2.60;73.32
9523;BME280;63165;43.016;25.784;2023-02-18T05:35:16;100536.25;;;2.60;73.41
9523;BME280;63165;43.016;25.784;2023-02-18T05:37:44;100551.00;;;2.64;73.91
9523;BME280;63165;43.016;25.784;2023-02-18T05:40:12;100546.75;;;2.67;73.82
9523;BME280;63165;43.016;25.784;2023-02-18T05:42:39;100537.22;;;2.65;74.23
9523;BME280;63165;43.016;25.784;2023-02-18T05:45:07;100530.38;;;2.67;74.45
9523;BME280;63165;43.016;25.784;2023-02-18T05:47:35;100507.56;;;2.47;74.54
9523;BME280;63165;43.016;25.784;2023-02-18T05:50:03;100535.84;;;2.79;74.52
9523;BME280;63165;43.016;25.784;2023-02-18T05:52:30;100527.31;;;2.83;74.53
9523;BME280;63165;43.016;25.784;2023-02-18T05:54:59;100535.97;;;2.85;74.34
9523;BME280;63165;43.016;25.784;2023-02-18T05:57:26;100520.34;;;2.79;74.55
9523;BME280;63165;43.016;25.784;2023-02-18T05:59:53;100517.88;;;2.85;74.58
9523;BME280;63165;43.016;25.784;2023-02-18T06:02:21;100521.50;;;2.94;75.13
9523;BME280;63165;43.016;25.784;2023-02-18T06:04:48;100519.84;;;2.97;75.22
9523;BME280;63165;43.016;25.784;2023-02-18T06:07:15;100527.69;;;3.00;75.45
9523;BME280;63165;43.016;25.784;2023-02-18T06:09:45;100515.50;;;2.95;75.42
9523;BME280;63165;43.016;25.784;2023-02-18T06:12:14;100510.53;;;3.04;75.84
9523;BME280;63165;43.016;25.784;2023-02-18T06:14:41;100514.09;;;3.09;75.94
9523;BME280;63165;43.016;25.784;2023-02-18T06:17:09;100521.94;;;3.14;76.16
9523;BME280;63165;43.016;25.784;2023-02-18T06:19:36;100516.84;;;3.17;76.14
9523;BME280;63165;43.016;25.784;2023-02-18T06:22:04;100510.91;;;3.22;76.06
9523;BME280;63165;43.016;25.784;2023-02-18T06:24:31;100504.09;;;3.26;75.99
9523;BME280;63165;43.016;25.784;2023-02-18T06:26:59;100504.19;;;3.30;76.18
9523;BME280;63165;43.016;25.784;2023-02-18T06:29:28;100494.69;;;3.31;76.27
9523;BME280;63165;43.016;25.784;2023-02-18T06:31:56;100507.81;;;3.40;76.51
9523;BME280;63165;43.016;25.784;2023-02-18T06:34:23;100501.84;;;3.43;76.98
9523;BME280;63165;43.016;25.784;2023-02-18T06:36:50;100503.75;;;3.53;77.13
9523;BME280;63165;43.016;25.784;2023-02-18T06:39:18;100495.19;;;3.57;77.66
9523;BME280;63165;43.016;25.784;2023-02-18T06:41:45;100489.28;;;3.61;77.26
9523;BME280;63165;43.016;25.784;2023-02-18T06:44:12;100492.91;;;3.71;77.55
9523;BME280;63165;43.016;25.784;2023-02-18T06:46:43;100490.44;;;3.79;77.90
9523;BME280;63165;43.016;25.784;2023-02-18T06:49:10;100469.63;;;3.73;78.21
9523;BME280;63165;43.016;25.784;2023-02-18T06:51:38;100475.13;;;3.91;78.63
9523;BME280;63165;43.016;25.784;2023-02-18T06:54:05;100480.41;;;3.97;79.18
9523;BME280;63165;43.016;25.784;2023-02-18T06:56:32;100477.91;;;4.03;79.83
9523;BME280;63165;43.016;25.784;2023-02-18T06:58:59;100469.38;;;4.09;80.38
9523;BME280;63165;43.016;25.784;2023-02-18T07:01:27;100463.44;;;4.15;80.54
9523;BME280;63165;43.016;25.784;2023-02-18T07:03:55;100467.94;;;4.25;80.71
9523;BME280;63165;43.016;25.784;2023-02-18T07:06:23;100471.44;;;4.28;80.38
9523;BME280;63165;43.016;25.784;2023-02-18T07:08:50;100452.53;;;4.34;80.15
9523;BME280;63165;43.016;25.784;2023-02-18T07:11:17;100442.16;;;4.36;79.98
9523;BME280;63165;43.016;25.784;2023-02-18T07:13:45;100446.59;;;4.43;80.26
9523;BME280;63165;43.016;25.784;2023-02-18T07:16:12;100451.81;;;4.44;80.36
9523;BME280;63165;43.016;25.784;2023-02-18T07:18:39;100462.25;;;4.49;80.52
9523;BME280;63165;43.016;25.784;2023-02-18T07:21:08;100466.56;;;4.50;80.06
9523;BME280;63165;43.016;25.784;2023-02-18T07:23:35;100470.03;;;4.52;80.29
9523;BME280;63165;43.016;25.784;2023-02-18T07:26:04;100460.50;;;4.48;79.59
9523;BME280;63165;43.016;25.784;2023-02-18T07:28:32;100481.34;;;4.56;79.69
9523;BME280;63165;43.016;25.784;2023-02-18T07:31:00;100468.44;;;4.62;79.58
9523;BME280;63165;43.016;25.784;2023-02-18T07:33:27;100472.91;;;4.71;79.48
9523;BME280;63165;43.016;25.784;2023-02-18T07:35:55;100482.50;;;4.78;79.76
9523;BME280;63165;43.016;25.784;2023-02-18T07:38:25;100480.94;;;4.89;79.87
9523;BME280;63165;43.016;25.784;2023-02-18T07:40:53;100487.88;;;4.92;79.94
9523;BME280;63165;43.016;25.784;2023-02-18T07:43:21;100484.59;;;5.03;80.21
9523;BME280;63165;43.016;25.784;2023-02-18T07:45:48;100481.22;;;5.09;80.08
9523;BME280;63165;43.016;25.784;2023-02-18T07:48:16;100473.63;;;5.26;81.01
9523;BME280;63165;43.016;25.784;2023-02-18T07:50:44;100476.38;;;5.40;81.85
9523;BME280;63165;43.016;25.784;2023-02-18T07:53:12;100479.19;;;5.60;82.75
9523;BME280;63165;43.016;25.784;2023-02-18T07:55:42;100475.09;;;5.82;83.19
9523;BME280;63165;43.016;25.784;2023-02-18T07:58:15;100480.53;;;6.07;82.34
9523;BME280;63165;43.016;25.784;2023-02-18T08:00:43;100481.50;;;6.22;81.75
9523;BME280;63165;43.016;25.784;2023-02-18T08:03:12;100472.06;;;6.29;80.65
9523;BME280;63165;43.016;25.784;2023-02-18T08:05:40;100479.97;;;6.46;80.50
9523;BME280;63165;43.016;25.784;2023-02-18T08:08:09;100480.91;;;6.57;80.76
9523;BME280;63165;43.016;25.784;2023-02-18T08:10:39;100487.97;;;6.75;80.44
9523;BME280;63165;43.016;25.784;2023-02-18T08:13:08;100492.38;;;6.89;79.35
9523;BME280;63165;43.016;25.784;2023-02-18T08:15:36;100479.41;;;6.96;77.98
9523;BME280;63165;43.016;25.784;2023-02-18T08:18:04;100479.47;;;7.06;77.59
9523;BME280;63165;43.016;25.784;2023-02-18T08:20:31;100475.22;;;7.28;77.64
9523;BME280;63165;43.016;25.784;2023-02-18T08:23:01;100475.28;;;7.45;77.49
9523;BME280;63165;43.016;25.784;2023-02-18T08:25:29;100467.47;;;7.58;76.99
9523;BME280;63165;43.016;25.784;2023-02-18T08:27:57;100474.47;;;7.80;76.21
9523;BME280;63165;43.016;25.784;2023-02-18T08:30:26;100464.94;;;8.02;76.34
9523;BME280;63165;43.016;25.784;2023-02-18T08:32:53;100457.97;;;8.21;75.63
9523;BME280;63165;43.016;25.784;2023-02-18T08:35:21;100459.75;;;8.48;74.70
9523;BME280;63165;43.016;25.784;2023-02-18T08:37:48;100465.75;;;8.73;73.77
9523;BME280;63165;43.016;25.784;2023-02-18T08:42:43;100461.28;;;9.17;71.98
9523;BME280;63165;43.016;25.784;2023-02-18T08:45:10;100462.94;;;9.38;70.84
9523;BME280;63165;43.016;25.784;2023-02-18T08:47:39;100457.56;;;9.59;69.89
9523;BME280;63165;43.016;25.784;2023-02-18T08:50:07;100453.97;;;9.80;69.67
9523;BME280;63165;43.016;25.784;2023-02-18T08:52:34;100457.25;;;10.02;68.99
9523;BME280;63165;43.016;25.784;2023-02-18T08:55:02;100450.13;;;10.24;68.71
9523;BME280;63165;43.016;25.784;2023-02-18T08:57:30;100448.22;;;10.43;67.55
9523;BME280;63165;43.016;25.784;2023-02-18T08:59:57;100441.94;;;10.63;66.41
9523;BME280;63165;43.016;25.784;2023-02-18T09:02:24;100435.56;;;10.87;65.20
9523;BME280;63165;43.016;25.784;2023-02-18T09:04:55;100428.31;;;11.09;64.67
9523;BME280;63165;43.016;25.784;2023-02-18T09:07:22;100433.22;;;11.35;63.70
9523;BME280;63165;43.016;25.784;2023-02-18T09:09:49;100433.75;;;11.57;64.22
9523;BME280;63165;43.016;25.784;2023-02-18T09:12:17;100437.91;;;11.71;63.50
9523;BME280;63165;43.016;25.784;2023-02-18T09:14:46;100451.59;;;11.93;61.64
9523;BME280;63165;43.016;25.784;2023-02-18T09:17:13;100456.66;;;12.07;61.42
9523;BME280;63165;43.016;25.784;2023-02-18T09:19:41;100443.28;;;12.20;61.55
9523;BME280;63165;43.016;25.784;2023-02-18T09:22:09;100455.31;;;12.34;61.48
9523;BME280;63165;43.016;25.784;2023-02-18T09:24:37;100450.56;;;12.54;59.99
9523;BME280;63165;43.016;25.784;2023-02-18T09:27:05;100439.53;;;12.82;57.66
9523;BME280;63165;43.016;25.784;2023-02-18T09:29:32;100440.47;;;13.23;55.00
9523;BME280;63165;43.016;25.784;2023-02-18T09:32:00;100436.47;;;13.47;53.02
9523;BME280;63165;43.016;25.784;2023-02-18T09:34:27;100443.22;;;13.95;50.66
9523;BME280;63165;43.016;25.784;2023-02-18T09:36:55;100432.63;;;14.32;49.30
9523;BME280;63165;43.016;25.784;2023-02-18T09:39:24;100435.31;;;14.65;48.25
9523;BME280;63165;43.016;25.784;2023-02-18T09:41:53;100441.44;;;14.99;46.77
9523;BME280;63165;43.016;25.784;2023-02-18T09:44:24;100440.50;;;15.29;45.88
9523;BME280;63165;43.016;25.784;2023-02-18T09:46:58;100441.50;;;15.55;44.77
9523;BME280;63165;43.016;25.784;2023-02-18T09:49:27;100435.47;;;15.80;44.93
9523;BME280;63165;43.016;25.784;2023-02-18T09:52:02;100435.59;;;16.03;43.32
9523;BME280;63165;43.016;25.784;2023-02-18T09:54:32;100427.00;;;16.23;43.08
9523;BME280;63165;43.016;25.784;2023-02-18T09:57:00;100433.28;;;16.46;42.31
9523;BME280;63165;43.016;25.784;2023-02-18T09:59:28;100433.56;;;16.63;41.97
9523;BME280;63165;43.016;25.784;2023-02-18T10:01:57;100427.75;;;16.77;41.66
9523;BME280;63165;43.016;25.784;2023-02-18T10:04:29;100426.66;;;16.84;41.53
9523;BME280;63165;43.016;25.784;2023-02-18T10:07:01;100421.78;;;16.97;41.08
9523;BME280;63165;43.016;25.784;2023-02-18T10:09:33;100417.81;;;17.09;40.77
9523;BME280;63165;43.016;25.784;2023-02-18T10:12:07;100415.56;;;17.22;40.70
9523;BME280;63165;43.016;25.784;2023-02-18T10:14:39;100410.88;;;17.30;40.39
9523;BME280;63165;43.016;25.784;2023-02-18T10:17:09;100412.50;;;17.33;40.28
9523;BME280;63165;43.016;25.784;2023-02-18T10:19:40;100404.28;;;17.40;39.69
9523;BME280;63165;43.016;25.784;2023-02-18T10:22:11;100412.66;;;17.52;38.83
9523;BME280;63165;43.016;25.784;2023-02-18T10:24:42;100410.63;;;17.58;39.03
9523;BME280;63165;43.016;25.784;2023-02-18T10:27:17;100405.19;;;17.61;38.91
9523;BME280;63165;43.016;25.784;2023-02-18T10:29:47;100402.31;;;17.68;38.81
9523;BME280;63165;43.016;25.784;2023-02-18T10:32:20;100394.31;;;17.69;39.36
9523;BME280;63165;43.016;25.784;2023-02-18T10:34:52;100395.44;;;17.85;38.33
9523;BME280;63165;43.016;25.784;2023-02-18T10:37:39;100391.66;;;17.91;38.02
9523;BME280;63165;43.016;25.784;2023-02-18T10:40:16;100390.56;;;17.97;38.39
9523;BME280;63165;43.016;25.784;2023-02-18T10:42:58;100395.53;;;18.04;38.97
9523;BME280;63165;43.016;25.784;2023-02-18T10:45:35;100396.31;;;18.07;39.31
9523;BME280;63165;43.016;25.784;2023-02-18T10:48:15;100398.97;;;18.07;39.08
9523;BME280;63165;43.016;25.784;2023-02-18T10:50:47;100389.25;;;18.07;38.37
9523;BME280;63165;43.016;25.784;2023-02-18T10:53:18;100390.91;;;18.10;37.82
9523;BME280;63165;43.016;25.784;2023-02-18T10:55:52;100379.72;;;18.03;37.94
9523;BME280;63165;43.016;25.784;2023-02-18T10:58:31;100376.13;;;18.04;37.62
9523;BME280;63165;43.016;25.784;2023-02-18T11:01:00;100377.72;;;18.08;37.39
9523;BME280;63165;43.016;25.784;2023-02-18T11:03:41;100382.97;;;18.10;37.45
9523;BME280;63165;43.016;25.784;2023-02-18T11:06:24;100374.94;;;18.11;38.25
9523;BME280;63165;43.016;25.784;2023-02-18T11:08:55;100360.66;;;18.15;37.93
9523;BME280;63165;43.016;25.784;2023-02-18T11:11:28;100352.66;;;18.17;37.36
9523;BME280;63165;43.016;25.784;2023-02-18T11:13:58;100359.66;;;18.18;36.65
9523;BME280;63165;43.016;25.784;2023-02-18T11:16:37;100362.28;;;18.18;36.13
9523;BME280;63165;43.016;25.784;2023-02-18T11:19:08;100362.22;;;18.19;36.24
9523;BME280;63165;43.016;25.784;2023-02-18T11:22:06;100361.31;;;18.20;36.03
9523;BME280;63165;43.016;25.784;2023-02-18T11:24:37;100362.22;;;18.19;36.39
9523;BME280;63165;43.016;25.784;2023-02-18T11:27:09;100370.06;;;18.22;35.08
9523;BME280;63165;43.016;25.784;2023-02-18T11:29:38;100354.03;;;18.26;34.80
9523;BME280;63165;43.016;25.784;2023-02-18T11:32:10;100354.03;;;18.26;34.76
9523;BME280;63165;43.016;25.784;2023-02-18T11:34:41;100344.31;;;18.26;35.15
9523;BME280;63165;43.016;25.784;2023-02-18T11:37:12;100336.94;;;18.33;34.68
9523;BME280;63165;43.016;25.784;2023-02-18T11:39:44;100348.84;;;18.43;34.74
9523;BME280;63165;43.016;25.784;2023-02-18T11:42:17;100329.28;;;18.46;34.11
9523;BME280;63165;43.016;25.784;2023-02-18T11:44:49;100324.59;;;18.52;34.54
9523;BME280;63165;43.016;25.784;2023-02-18T11:47:24;100317.38;;;18.56;34.36
9523;BME280;63165;43.016;25.784;2023-02-18T11:50:10;100328.53;;;18.62;34.61
9523;BME280;63165;43.016;25.784;2023-02-18T11:52:41;100325.53;;;18.70;35.36
9523;BME280;63165;43.016;25.784;2023-02-18T11:55:15;100330.38;;;18.81;34.52
9523;BME280;63165;43.016;25.784;2023-02-18T11:57:48;100321.13;;;18.90;34.00
9523;BME280;63165;43.016;25.784;2023-02-18T12:00:22;100327.22;;;18.92;35.01
9523;BME280;63165;43.016;25.784;2023-02-18T12:02:51;100325.28;;;18.95;34.72
9523;BME280;63165;43.016;25.784;2023-02-18T12:05:23;100320.13;;;18.92;34.43
9523;BME280;63165;43.016;25.784;2023-02-18T12:07:55;100316.50;;;18.95;34.55
9523;BME280;63165;43.016;25.784;2023-02-18T12:10:28;100329.88;;;18.92;34.43
9523;BME280;63165;43.016;25.784;2023-02-18T12:13:02;100328.31;;;18.88;34.66
9523;BME280;63165;43.016;25.784;2023-02-18T12:15:40;100325.50;;;18.91;34.74
9523;BME280;63165;43.016;25.784;2023-02-18T12:18:32;100328.06;;;18.92;34.30
9523;BME280;63165;43.016;25.784;2023-02-18T12:21:17;100317.41;;;18.94;33.90
9523;BME280;63165;43.016;25.784;2023-02-18T12:23:51;100329.88;;;18.92;33.75
9523;BME280;63165;43.016;25.784;2023-02-18T12:26:27;100327.34;;;18.89;34.45
9523;BME280;63165;43.016;25.784;2023-02-18T12:34:55;100302.59;;;18.90;35.06
9523;BME280;63165;43.016;25.784;2023-02-18T12:37:46;100306.88;;;18.92;35.66
9523;BME280;63165;43.016;25.784;2023-02-18T12:40:45;100304.22;;;18.92;35.27
9523;BME280;63165;43.016;25.784;2023-02-18T12:43:24;100309.16;;;19.00;36.14
9523;BME280;63165;43.016;25.784;2023-02-18T12:46:19;100301.97;;;19.02;36.62
9523;BME280;63165;43.016;25.784;2023-02-18T12:49:00;100284.50;;;18.98;36.70
9523;BME280;63165;43.016;25.784;2023-02-18T12:51:40;100276.03;;;19.09;36.62
9523;BME280;63165;43.016;25.784;2023-02-18T12:54:23;100282.91;;;19.13;36.79
9523;BME280;63165;43.016;25.784;2023-02-18T12:57:03;100279.75;;;19.24;35.48
9523;BME280;63165;43.016;25.784;2023-02-18T13:02:43;100273.84;;;19.36;33.93
9523;BME280;63165;43.016;25.784;2023-02-18T13:05:27;100282.59;;;19.38;33.98
9523;BME280;63165;43.016;25.784;2023-02-18T13:08:21;100280.78;;;19.38;34.24
9523;BME280;63165;43.016;25.784;2023-02-18T13:11:03;100284.59;;;19.33;35.28
9523;BME280;63165;43.016;25.784;2023-02-18T13:13:38;100280.66;;;19.23;35.94
9523;BME280;63165;43.016;25.784;2023-02-18T13:16:09;100281.91;;;19.15;35.74
9523;BME280;63165;43.016;25.784;2023-02-18T13:18:42;100277.66;;;19.11;35.97
9523;BME280;63165;43.016;25.784;2023-02-18T13:21:12;100284.00;;;19.09;36.21
9523;BME280;63165;43.016;25.784;2023-02-18T13:23:47;100285.28;;;19.00;36.64
9523;BME280;63165;43.016;25.784;2023-02-18T13:26:17;100282.63;;;19.00;36.92
9523;BME280;63165;43.016;25.784;2023-02-18T13:28:48;100285.53;;;18.95;37.43
9523;BME280;63165;43.016;25.784;2023-02-18T13:31:37;100267.34;;;18.88;37.71
9523;BME280;63165;43.016;25.784;2023-02-18T13:34:14;100273.47;;;18.88;38.23
9523;BME280;63165;43.016;25.784;2023-02-18T13:37:00;100282.28;;;18.89;38.36